sensor_id;sensor_type;location;lat;lon;timestamp;P1;durP1;ratioP1;P2;durP2;ratioP2
23266;SDS011;11802;53.160;8.214;2022-12-18T00:01:24;78.23;;;29.23;;
23266;SDS011;11802;53.160;8.214;2022-12-18T00:03:51;74.93;;;28.40;;
23266;SDS011;11802;53.160;8.214;2022-12-18T00:06:18;93.23;;;34.27;;
23266;SDS011;11802;53.160;8.214;2022-12-18T00:08:44;84.60;;;32.47;;
23266;SDS011;11802;53.160;8.214;2022-12-18T00:11:11;89.53;;;32.77;;
23266;SDS011;11802;53.160;8.214;2022-12-18T00:13:38;91.47;;;33.13;;
23266;SDS011;11802;53.160;8.214;2022-12-18T00:16:05;94.57;;;32.90;;
23266;SDS011;11802;53.160;8.214;2022-12-18T00:18:32;85.67;;;33.17;;
23266;SDS011;11802;53.160;8.214;2022-12-18T00:20:58;91.07;;;31.57;;
23266;SDS011;11802;53.160;8.214;2022-12-18T00:23:26;92.30;;;31.60;;
23266;SDS011;11802;53.160;8.214;2022-12-18T00:25:51;93.97;;;31.80;;
23266;SDS011;11802;53.160;8.214;2022-12-18T00:28:17;89.57;;;31.20;;
23266;SDS011;11802;53.160;8.214;2022-12-18T00:30:43;94.53;;;31.27;;
23266;SDS011;11802;53.160;8.214;2022-12-18T00:33:08;97.27;;;32.80;;
23266;SDS011;11802;53.160;8.214;2022-12-18T00:35:34;91.77;;;34.23;;
23266;SDS011;11802;53.160;8.214;2022-12-18T00:37:59;91.63;;;32.03;;
23266;SDS011;11802;53.160;8.214;2022-12-18T00:40:25;85.47;;;30.03;;
23266;SDS011;11802;53.160;8.214;2022-12-18T00:42:50;99.70;;;33.63;;
23266;SDS011;11802;53.160;8.214;2022-12-18T00:45:25;98.33;;;33.93;;
23266;SDS011;11802;53.160;8.214;2022-12-18T00:47:52;93.97;;;31.43;;
23266;SDS011;11802;53.160;8.214;2022-12-18T00:50:18;86.43;;;31.60;;
23266;SDS011;11802;53.160;8.214;2022-12-18T00:52:44;88.20;;;30.43;;
23266;SDS011;11802;53.160;8.214;2022-12-18T00:55:10;91.43;;;31.17;;
23266;SDS011;11802;53.160;8.214;2022-12-18T00:57:35;98.33;;;31.87;;
23266;SDS011;11802;53.160;8.214;2022-12-18T01:00:02;85.07;;;29.73;;
23266;SDS011;11802;53.160;8.214;2022-12-18T01:02:29;91.63;;;31.50;;
23266;SDS011;11802;53.160;8.214;2022-12-18T01:04:54;85.23;;;31.93;;
23266;SDS011;11802;53.160;8.214;2022-12-18T01:07:20;81.17;;;29.33;;
23266;SDS011;11802;53.160;8.214;2022-12-18T01:09:45;81.70;;;28.67;;
23266;SDS011;11802;53.160;8.214;2022-12-18T01:12:11;73.77;;;28.30;;
23266;SDS011;11802;53.160;8.214;2022-12-18T01:14:36;80.03;;;28.27;;
23266;SDS011;11802;53.160;8.214;2022-12-18T01:17:03;72.53;;;27.30;;
23266;SDS011;11802;53.160;8.214;2022-12-18T01:19:29;71.33;;;27.20;;
23266;SDS011;11802;53.160;8.214;2022-12-18T01:21:54;73.67;;;28.27;;
23266;SDS011;11802;53.160;8.214;2022-12-18T01:24:20;80.87;;;28.83;;
23266;SDS011;11802;53.160;8.214;2022-12-18T01:26:45;70.47;;;28.93;;
23266;SDS011;11802;53.160;8.214;2022-12-18T01:29:11;62.63;;;25.43;;
23266;SDS011;11802;53.160;8.214;2022-12-18T01:31:36;72.43;;;26.43;;
23266;SDS011;11802;53.160;8.214;2022-12-18T01:34:03;74.80;;;26.03;;
23266;SDS011;11802;53.160;8.214;2022-12-18T01:36:31;64.67;;;24.33;;
23266;SDS011;11802;53.160;8.214;2022-12-18T01:38:59;59.17;;;24.23;;
23266;SDS011;11802;53.160;8.214;2022-12-18T01:41:28;65.50;;;25.40;;
23266;SDS011;11802;53.160;8.214;2022-12-18T01:47:18;63.10;;;24.10;;
23266;SDS011;11802;53.160;8.214;2022-12-18T01:49:45;62.50;;;24.47;;
23266;SDS011;11802;53.160;8.214;2022-12-18T01:52:11;61.07;;;24.47;;
23266;SDS011;11802;53.160;8.214;2022-12-18T01:54:36;58.33;;;23.57;;
23266;SDS011;11802;53.160;8.214;2022-12-18T01:57:02;57.73;;;23.67;;
23266;SDS011;11802;53.160;8.214;2022-12-18T01:59:28;56.13;;;23.60;;
23266;SDS011;11802;53.160;8.214;2022-12-18T02:01:56;57.53;;;23.43;;
23266;SDS011;11802;53.160;8.214;2022-12-18T02:04:23;55.83;;;23.27;;
23266;SDS011;11802;53.160;8.214;2022-12-18T02:06:51;55.13;;;22.70;;
23266;SDS011;11802;53.160;8.214;2022-12-18T02:09:27;50.23;;;22.03;;
23266;SDS011;11802;53.160;8.214;2022-12-18T02:14:45;54.07;;;22.80;;
23266;SDS011;11802;53.160;8.214;2022-12-18T02:17:26;46.50;;;21.07;;
23266;SDS011;11802;53.160;8.214;2022-12-18T02:20:18;45.90;;;20.00;;
23266;SDS011;11802;53.160;8.214;2022-12-18T02:22:51;53.37;;;22.00;;
23266;SDS011;11802;53.160;8.214;2022-12-18T02:28:31;51.40;;;20.73;;
23266;SDS011;11802;53.160;8.214;2022-12-18T02:31:06;48.03;;;20.20;;
23266;SDS011;11802;53.160;8.214;2022-12-18T02:33:35;50.13;;;20.43;;
23266;SDS011;11802;53.160;8.214;2022-12-18T02:36:04;49.63;;;21.90;;
23266;SDS011;11802;53.160;8.214;2022-12-18T02:38:31;53.10;;;21.53;;
23266;SDS011;11802;53.160;8.214;2022-12-18T02:40:58;50.73;;;20.63;;
23266;SDS011;11802;53.160;8.214;2022-12-18T02:43:25;45.17;;;20.50;;
23266;SDS011;11802;53.160;8.214;2022-12-18T02:45:54;48.77;;;21.93;;
23266;SDS011;11802;53.160;8.214;2022-12-18T02:48:24;49.90;;;19.97;;
23266;SDS011;11802;53.160;8.214;2022-12-18T02:51:18;48.80;;;20.57;;
23266;SDS011;11802;53.160;8.214;2022-12-18T02:53:53;45.37;;;20.27;;
23266;SDS011;11802;53.160;8.214;2022-12-18T02:56:42;50.10;;;21.53;;
23266;SDS011;11802;53.160;8.214;2022-12-18T02:59:15;46.87;;;21.20;;
23266;SDS011;11802;53.160;8.214;2022-12-18T03:01:51;47.70;;;20.80;;
23266;SDS011;11802;53.160;8.214;2022-12-18T03:04:49;47.43;;;21.17;;
23266;SDS011;11802;53.160;8.214;2022-12-18T03:07:34;46.93;;;22.23;;
23266;SDS011;11802;53.160;8.214;2022-12-18T03:10:23;44.47;;;21.13;;
23266;SDS011;11802;53.160;8.214;2022-12-18T03:12:54;47.93;;;21.03;;
23266;SDS011;11802;53.160;8.214;2022-12-18T03:15:48;40.73;;;18.80;;
23266;SDS011;11802;53.160;8.214;2022-12-18T03:18:21;41.47;;;19.83;;
23266;SDS011;11802;53.160;8.214;2022-12-18T03:20:50;43.77;;;19.50;;
23266;SDS011;11802;53.160;8.214;2022-12-18T03:23:24;42.67;;;19.53;;
23266;SDS011;11802;53.160;8.214;2022-12-18T03:25:54;40.53;;;19.03;;
23266;SDS011;11802;53.160;8.214;2022-12-18T03:28:24;53.07;;;20.97;;
23266;SDS011;11802;53.160;8.214;2022-12-18T03:30:55;41.77;;;19.20;;
23266;SDS011;11802;53.160;8.214;2022-12-18T03:36:15;50.63;;;21.50;;
23266;SDS011;11802;53.160;8.214;2022-12-18T03:38:41;43.47;;;19.50;;
23266;SDS011;11802;53.160;8.214;2022-12-18T03:46:30;46.10;;;19.83;;
23266;SDS011;11802;53.160;8.214;2022-12-18T03:49:40;47.30;;;19.50;;
23266;SDS011;11802;53.160;8.214;2022-12-18T03:55:05;47.30;;;19.93;;
23266;SDS011;11802;53.160;8.214;2022-12-18T03:57:33;42.00;;;19.70;;
23266;SDS011;11802;53.160;8.214;2022-12-18T04:00:09;48.30;;;20.33;;
23266;SDS011;11802;53.160;8.214;2022-12-18T04:02:38;44.33;;;20.73;;
23266;SDS011;11802;53.160;8.214;2022-12-18T04:05:16;45.40;;;20.93;;
23266;SDS011;11802;53.160;8.214;2022-12-18T04:07:45;46.57;;;21.73;;
23266;SDS011;11802;53.160;8.214;2022-12-18T04:10:12;44.40;;;19.90;;
23266;SDS011;11802;53.160;8.214;2022-12-18T04:12:39;44.20;;;20.03;;
23266;SDS011;11802;53.160;8.214;2022-12-18T04:15:05;39.97;;;19.27;;
23266;SDS011;11802;53.160;8.214;2022-12-18T04:17:32;38.13;;;19.47;;
23266;SDS011;11802;53.160;8.214;2022-12-18T04:19:57;35.87;;;19.40;;
23266;SDS011;11802;53.160;8.214;2022-12-18T04:22:22;42.17;;;20.07;;
23266;SDS011;11802;53.160;8.214;2022-12-18T04:24:48;40.37;;;18.93;;
23266;SDS011;11802;53.160;8.214;2022-12-18T04:27:13;37.17;;;18.23;;
23266;SDS011;11802;53.160;8.214;2022-12-18T04:29:39;41.00;;;19.30;;
23266;SDS011;11802;53.160;8.214;2022-12-18T04:32:05;42.60;;;19.70;;
23266;SDS011;11802;53.160;8.214;2022-12-18T04:34:30;36.50;;;18.40;;
23266;SDS011;11802;53.160;8.214;2022-12-18T04:36:56;31.60;;;17.77;;
23266;SDS011;11802;53.160;8.214;2022-12-18T04:39:21;36.17;;;18.23;;
23266;SDS011;11802;53.160;8.214;2022-12-18T04:41:47;36.20;;;17.50;;
23266;SDS011;11802;53.160;8.214;2022-12-18T04:44:13;34.67;;;18.23;;
23266;SDS011;11802;53.160;8.214;2022-12-18T04:46:38;34.43;;;17.77;;
23266;SDS011;11802;53.160;8.214;2022-12-18T04:49:04;38.00;;;19.00;;
23266;SDS011;11802;53.160;8.214;2022-12-18T04:51:29;38.60;;;17.83;;
23266;SDS011;11802;53.160;8.214;2022-12-18T04:53:55;36.70;;;17.83;;
23266;SDS011;11802;53.160;8.214;2022-12-18T04:56:21;31.10;;;17.10;;
23266;SDS011;11802;53.160;8.214;2022-12-18T04:58:46;32.77;;;16.43;;
23266;SDS011;11802;53.160;8.214;2022-12-18T05:01:12;37.27;;;17.40;;
23266;SDS011;11802;53.160;8.214;2022-12-18T05:03:41;31.93;;;16.67;;
23266;SDS011;11802;53.160;8.214;2022-12-18T05:06:07;30.07;;;15.87;;
23266;SDS011;11802;53.160;8.214;2022-12-18T05:08:32;32.43;;;16.03;;
23266;SDS011;11802;53.160;8.214;2022-12-18T05:10:59;31.57;;;16.70;;
23266;SDS011;11802;53.160;8.214;2022-12-18T05:13:32;31.80;;;16.30;;
23266;SDS011;11802;53.160;8.214;2022-12-18T05:15:58;29.20;;;15.50;;
23266;SDS011;11802;53.160;8.214;2022-12-18T05:18:23;29.90;;;16.10;;
23266;SDS011;11802;53.160;8.214;2022-12-18T05:20:49;32.93;;;15.23;;
23266;SDS011;11802;53.160;8.214;2022-12-18T05:23:15;26.13;;;14.23;;
23266;SDS011;11802;53.160;8.214;2022-12-18T05:25:41;27.93;;;15.53;;
23266;SDS011;11802;53.160;8.214;2022-12-18T05:28:07;25.87;;;14.10;;
23266;SDS011;11802;53.160;8.214;2022-12-18T05:30:32;29.50;;;14.60;;
23266;SDS011;11802;53.160;8.214;2022-12-18T05:32:58;28.73;;;15.30;;
23266;SDS011;11802;53.160;8.214;2022-12-18T05:35:24;31.53;;;16.00;;
23266;SDS011;11802;53.160;8.214;2022-12-18T05:37:50;33.60;;;16.83;;
23266;SDS011;11802;53.160;8.214;2022-12-18T05:40:15;28.27;;;15.23;;
23266;SDS011;11802;53.160;8.214;2022-12-18T05:42:41;29.37;;;15.30;;
23266;SDS011;11802;53.160;8.214;2022-12-18T05:45:06;29.37;;;16.03;;
23266;SDS011;11802;53.160;8.214;2022-12-18T05:47:32;29.23;;;15.20;;
23266;SDS011;11802;53.160;8.214;2022-12-18T05:49:58;28.20;;;14.33;;
23266;SDS011;11802;53.160;8.214;2022-12-18T05:52:23;30.10;;;15.47;;
23266;SDS011;11802;53.160;8.214;2022-12-18T05:54:49;31.57;;;15.20;;
23266;SDS011;11802;53.160;8.214;2022-12-18T05:57:15;29.27;;;14.70;;
23266;SDS011;11802;53.160;8.214;2022-12-18T05:59:40;28.13;;;14.40;;
23266;SDS011;11802;53.160;8.214;2022-12-18T06:02:06;27.43;;;14.97;;
23266;SDS011;11802;53.160;8.214;2022-12-18T06:04:31;28.10;;;13.83;;
23266;SDS011;11802;53.160;8.214;2022-12-18T06:06:57;27.00;;;13.77;;
23266;SDS011;11802;53.160;8.214;2022-12-18T06:09:23;28.57;;;14.43;;
23266;SDS011;11802;53.160;8.214;2022-12-18T06:11:49;25.47;;;14.20;;
23266;SDS011;11802;53.160;8.214;2022-12-18T06:14:16;27.13;;;14.07;;
23266;SDS011;11802;53.160;8.214;2022-12-18T06:16:42;26.43;;;13.63;;
23266;SDS011;11802;53.160;8.214;2022-12-18T06:19:07;30.20;;;14.63;;
23266;SDS011;11802;53.160;8.214;2022-12-18T06:21:38;25.00;;;13.47;;
23266;SDS011;11802;53.160;8.214;2022-12-18T06:24:04;28.40;;;13.83;;
23266;SDS011;11802;53.160;8.214;2022-12-18T06:26:30;28.50;;;14.47;;
23266;SDS011;11802;53.160;8.214;2022-12-18T06:28:55;24.63;;;13.43;;
23266;SDS011;11802;53.160;8.214;2022-12-18T06:31:21;29.90;;;14.40;;
23266;SDS011;11802;53.160;8.214;2022-12-18T06:33:46;25.80;;;13.80;;
23266;SDS011;11802;53.160;8.214;2022-12-18T06:36:12;29.13;;;14.10;;
23266;SDS011;11802;53.160;8.214;2022-12-18T06:38:39;23.63;;;12.73;;
23266;SDS011;11802;53.160;8.214;2022-12-18T06:41:08;31.07;;;14.60;;
23266;SDS011;11802;53.160;8.214;2022-12-18T06:43:34;25.70;;;13.77;;
23266;SDS011;11802;53.160;8.214;2022-12-18T06:46:00;24.60;;;13.00;;
23266;SDS011;11802;53.160;8.214;2022-12-18T06:48:26;25.60;;;12.77;;
23266;SDS011;11802;53.160;8.214;2022-12-18T06:50:52;24.63;;;13.07;;
23266;SDS011;11802;53.160;8.214;2022-12-18T06:53:17;23.97;;;12.27;;
23266;SDS011;11802;53.160;8.214;2022-12-18T06:55:43;25.23;;;12.67;;
23266;SDS011;11802;53.160;8.214;2022-12-18T06:58:08;24.57;;;12.03;;
23266;SDS011;11802;53.160;8.214;2022-12-18T07:00:34;24.33;;;12.20;;
23266;SDS011;11802;53.160;8.214;2022-12-18T07:02:59;23.63;;;11.53;;
23266;SDS011;11802;53.160;8.214;2022-12-18T07:05:25;22.17;;;11.43;;
23266;SDS011;11802;53.160;8.214;2022-12-18T07:07:50;18.90;;;11.53;;
23266;SDS011;11802;53.160;8.214;2022-12-18T07:10:16;19.27;;;11.43;;
23266;SDS011;11802;53.160;8.214;2022-12-18T07:12:41;21.47;;;11.83;;
23266;SDS011;11802;53.160;8.214;2022-12-18T07:15:07;22.03;;;12.20;;
23266;SDS011;11802;53.160;8.214;2022-12-18T07:17:33;19.97;;;11.67;;
23266;SDS011;11802;53.160;8.214;2022-12-18T07:19:58;22.30;;;12.17;;
23266;SDS011;11802;53.160;8.214;2022-12-18T07:22:25;23.00;;;13.13;;
23266;SDS011;11802;53.160;8.214;2022-12-18T07:24:51;22.10;;;11.37;;
23266;SDS011;11802;53.160;8.214;2022-12-18T07:27:16;20.40;;;12.10;;
23266;SDS011;11802;53.160;8.214;2022-12-18T07:29:42;25.13;;;12.70;;
23266;SDS011;11802;53.160;8.214;2022-12-18T07:32:07;19.77;;;11.77;;
23266;SDS011;11802;53.160;8.214;2022-12-18T07:34:33;23.70;;;13.00;;
23266;SDS011;11802;53.160;8.214;2022-12-18T07:36:59;19.60;;;11.63;;
23266;SDS011;11802;53.160;8.214;2022-12-18T07:39:24;25.00;;;12.23;;
23266;SDS011;11802;53.160;8.214;2022-12-18T07:41:50;23.80;;;12.23;;
23266;SDS011;11802;53.160;8.214;2022-12-18T07:44:35;20.77;;;11.47;;
23266;SDS011;11802;53.160;8.214;2022-12-18T07:47:01;26.03;;;12.80;;
23266;SDS011;11802;53.160;8.214;2022-12-18T07:49:27;21.47;;;11.13;;
23266;SDS011;11802;53.160;8.214;2022-12-18T07:51:54;23.27;;;11.87;;
23266;SDS011;11802;53.160;8.214;2022-12-18T07:54:21;22.27;;;10.73;;
23266;SDS011;11802;53.160;8.214;2022-12-18T07:56:47;24.13;;;11.77;;
23266;SDS011;11802;53.160;8.214;2022-12-18T07:59:13;19.83;;;10.20;;
23266;SDS011;11802;53.160;8.214;2022-12-18T08:01:38;24.67;;;10.73;;
23266;SDS011;11802;53.160;8.214;2022-12-18T08:04:04;20.67;;;11.07;;
23266;SDS011;11802;53.160;8.214;2022-12-18T08:06:30;24.00;;;11.37;;
23266;SDS011;11802;53.160;8.214;2022-12-18T08:08:55;20.20;;;10.27;;
23266;SDS011;11802;53.160;8.214;2022-12-18T08:11:22;20.70;;;11.17;;
23266;SDS011;11802;53.160;8.214;2022-12-18T08:13:49;24.50;;;10.33;;
23266;SDS011;11802;53.160;8.214;2022-12-18T08:16:15;17.47;;;10.80;;
23266;SDS011;11802;53.160;8.214;2022-12-18T08:18:41;19.27;;;10.63;;
23266;SDS011;11802;53.160;8.214;2022-12-18T08:21:07;20.47;;;10.13;;
23266;SDS011;11802;53.160;8.214;2022-12-18T08:23:34;19.87;;;10.67;;
23266;SDS011;11802;53.160;8.214;2022-12-18T08:26:00;22.13;;;11.47;;
23266;SDS011;11802;53.160;8.214;2022-12-18T08:28:26;18.83;;;10.73;;
23266;SDS011;11802;53.160;8.214;2022-12-18T08:30:51;19.83;;;10.63;;
23266;SDS011;11802;53.160;8.214;2022-12-18T08:33:17;18.97;;;10.20;;
23266;SDS011;11802;53.160;8.214;2022-12-18T08:35:43;19.00;;;9.83;;
23266;SDS011;11802;53.160;8.214;2022-12-18T08:38:08;18.33;;;9.87;;
23266;SDS011;11802;53.160;8.214;2022-12-18T08:40:34;17.10;;;9.40;;
23266;SDS011;11802;53.160;8.214;2022-12-18T08:42:59;18.10;;;9.90;;
23266;SDS011;11802;53.160;8.214;2022-12-18T08:45:43;18.50;;;9.17;;
23266;SDS011;11802;53.160;8.214;2022-12-18T08:48:09;18.70;;;9.47;;
23266;SDS011;11802;53.160;8.214;2022-12-18T08:50:34;19.60;;;10.40;;
23266;SDS011;11802;53.160;8.214;2022-12-18T08:53:00;18.57;;;8.77;;
23266;SDS011;11802;53.160;8.214;2022-12-18T08:55:26;19.03;;;10.60;;
23266;SDS011;11802;53.160;8.214;2022-12-18T08:57:52;18.13;;;10.60;;
23266;SDS011;11802;53.160;8.214;2022-12-18T09:00:17;17.87;;;10.23;;
23266;SDS011;11802;53.160;8.214;2022-12-18T09:02:43;18.83;;;9.77;;
23266;SDS011;11802;53.160;8.214;2022-12-18T09:05:08;23.23;;;10.20;;
23266;SDS011;11802;53.160;8.214;2022-12-18T09:07:34;18.53;;;9.70;;
23266;SDS011;11802;53.160;8.214;2022-12-18T09:10:00;20.97;;;11.03;;
23266;SDS011;11802;53.160;8.214;2022-12-18T09:12:28;17.57;;;9.30;;
23266;SDS011;11802;53.160;8.214;2022-12-18T09:14:54;21.17;;;10.47;;
23266;SDS011;11802;53.160;8.214;2022-12-18T09:17:21;17.73;;;10.13;;
23266;SDS011;11802;53.160;8.214;2022-12-18T09:19:46;16.60;;;9.37;;
23266;SDS011;11802;53.160;8.214;2022-12-18T09:22:12;17.53;;;8.90;;
23266;SDS011;11802;53.160;8.214;2022-12-18T09:24:37;18.63;;;10.13;;
23266;SDS011;11802;53.160;8.214;2022-12-18T09:27:03;18.83;;;10.47;;
23266;SDS011;11802;53.160;8.214;2022-12-18T09:29:28;24.23;;;11.60;;
23266;SDS011;11802;53.160;8.214;2022-12-18T09:31:54;18.83;;;10.57;;
23266;SDS011;11802;53.160;8.214;2022-12-18T09:34:19;20.57;;;10.23;;
23266;SDS011;11802;53.160;8.214;2022-12-18T09:36:46;19.07;;;10.17;;
23266;SDS011;11802;53.160;8.214;2022-12-18T09:39:12;20.93;;;10.57;;
23266;SDS011;11802;53.160;8.214;2022-12-18T09:44:22;19.00;;;10.57;;
23266;SDS011;11802;53.160;8.214;2022-12-18T09:47:08;19.63;;;9.73;;
23266;SDS011;11802;53.160;8.214;2022-12-18T09:49:49;16.17;;;9.73;;
23266;SDS011;11802;53.160;8.214;2022-12-18T09:52:35;17.37;;;10.40;;
23266;SDS011;11802;53.160;8.214;2022-12-18T09:57:40;20.53;;;11.17;;
23266;SDS011;11802;53.160;8.214;2022-12-18T10:00:22;18.57;;;10.87;;
23266;SDS011;11802;53.160;8.214;2022-12-18T10:02:52;18.60;;;10.50;;
23266;SDS011;11802;53.160;8.214;2022-12-18T10:11:32;17.07;;;9.30;;
23266;SDS011;11802;53.160;8.214;2022-12-18T10:20:13;18.10;;;9.63;;
23266;SDS011;11802;53.160;8.214;2022-12-18T10:25:50;16.33;;;8.77;;
23266;SDS011;11802;53.160;8.214;2022-12-18T10:28:22;15.57;;;8.97;;
23266;SDS011;11802;53.160;8.214;2022-12-18T10:30:49;17.53;;;9.97;;
23266;SDS011;11802;53.160;8.214;2022-12-18T10:33:19;17.77;;;9.27;;
23266;SDS011;11802;53.160;8.214;2022-12-18T10:35:48;17.67;;;9.93;;
23266;SDS011;11802;53.160;8.214;2022-12-18T10:40:51;17.90;;;10.17;;
23266;SDS011;11802;53.160;8.214;2022-12-18T10:43:33;19.73;;;10.57;;
23266;SDS011;11802;53.160;8.214;2022-12-18T10:46:12;20.50;;;11.67;;
23266;SDS011;11802;53.160;8.214;2022-12-18T10:48:55;21.07;;;11.07;;
23266;SDS011;11802;53.160;8.214;2022-12-18T10:51:26;17.00;;;9.70;;
23266;SDS011;11802;53.160;8.214;2022-12-18T10:56:27;17.37;;;9.27;;
23266;SDS011;11802;53.160;8.214;2022-12-18T10:58:58;16.90;;;9.47;;
23266;SDS011;11802;53.160;8.214;2022-12-18T11:01:31;16.23;;;9.33;;
23266;SDS011;11802;53.160;8.214;2022-12-18T11:04:32;19.73;;;10.90;;
23266;SDS011;11802;53.160;8.214;2022-12-18T11:07:01;17.60;;;10.53;;
23266;SDS011;11802;53.160;8.214;2022-12-18T11:09:33;20.33;;;10.80;;
23266;SDS011;11802;53.160;8.214;2022-12-18T11:12:04;16.33;;;9.10;;
23266;SDS011;11802;53.160;8.214;2022-12-18T11:14:46;16.63;;;10.10;;
23266;SDS011;11802;53.160;8.214;2022-12-18T11:17:31;16.40;;;9.20;;
23266;SDS011;11802;53.160;8.214;2022-12-18T11:20:00;13.67;;;8.50;;
23266;SDS011;11802;53.160;8.214;2022-12-18T11:22:29;15.70;;;9.10;;
23266;SDS011;11802;53.160;8.214;2022-12-18T11:25:05;15.83;;;8.87;;
23266;SDS011;11802;53.160;8.214;2022-12-18T11:27:40;15.97;;;8.50;;
23266;SDS011;11802;53.160;8.214;2022-12-18T11:30:21;15.37;;;9.33;;
23266;SDS011;11802;53.160;8.214;2022-12-18T11:35:35;16.87;;;9.07;;
23266;SDS011;11802;53.160;8.214;2022-12-18T11:40:43;17.50;;;10.07;;
23266;SDS011;11802;53.160;8.214;2022-12-18T11:43:14;16.87;;;9.97;;
23266;SDS011;11802;53.160;8.214;2022-12-18T11:45:51;14.83;;;8.87;;
23266;SDS011;11802;53.160;8.214;2022-12-18T11:48:33;15.60;;;9.20;;
23266;SDS011;11802;53.160;8.214;2022-12-18T11:51:04;16.97;;;9.40;;
23266;SDS011;11802;53.160;8.214;2022-12-18T11:53:34;17.13;;;9.73;;
23266;SDS011;11802;53.160;8.214;2022-12-18T12:01:51;15.83;;;9.03;;
23266;SDS011;11802;53.160;8.214;2022-12-18T12:04:39;15.83;;;9.37;;
23266;SDS011;11802;53.160;8.214;2022-12-18T12:07:28;15.37;;;8.57;;
23266;SDS011;11802;53.160;8.214;2022-12-18T12:10:15;17.50;;;9.70;;
23266;SDS011;11802;53.160;8.214;2022-12-18T12:13:07;18.87;;;9.03;;
23266;SDS011;11802;53.160;8.214;2022-12-18T12:21:22;17.50;;;9.90;;
23266;SDS011;11802;53.160;8.214;2022-12-18T12:26:52;15.33;;;9.13;;
23266;SDS011;11802;53.160;8.214;2022-12-18T12:32:09;14.97;;;9.20;;
23266;SDS011;11802;53.160;8.214;2022-12-18T12:37:12;15.87;;;9.10;;
23266;SDS011;11802;53.160;8.214;2022-12-18T12:39:42;13.03;;;8.30;;
23266;SDS011;11802;53.160;8.214;2022-12-18T12:42:54;16.53;;;8.87;;
23266;SDS011;11802;53.160;8.214;2022-12-18T12:45:24;15.83;;;8.53;;
23266;SDS011;11802;53.160;8.214;2022-12-18T12:47:55;15.97;;;10.07;;
23266;SDS011;11802;53.160;8.214;2022-12-18T12:50:23;17.07;;;10.07;;
23266;SDS011;11802;53.160;8.214;2022-12-18T12:52:54;15.87;;;8.90;;
23266;SDS011;11802;53.160;8.214;2022-12-18T12:55:22;15.50;;;9.07;;
23266;SDS011;11802;53.160;8.214;2022-12-18T13:00:30;14.37;;;8.33;;
23266;SDS011;11802;53.160;8.214;2022-12-18T13:03:08;14.60;;;7.93;;
23266;SDS011;11802;53.160;8.214;2022-12-18T13:05:47;15.47;;;8.70;;
23266;SDS011;11802;53.160;8.214;2022-12-18T13:08:26;15.20;;;9.20;;
23266;SDS011;11802;53.160;8.214;2022-12-18T13:10:52;15.37;;;9.77;;
23266;SDS011;11802;53.160;8.214;2022-12-18T13:13:49;13.67;;;8.53;;
23266;SDS011;11802;53.160;8.214;2022-12-18T13:16:23;15.60;;;8.80;;
23266;SDS011;11802;53.160;8.214;2022-12-18T13:18:52;15.30;;;9.20;;
23266;SDS011;11802;53.160;8.214;2022-12-18T13:21:28;14.17;;;8.63;;
23266;SDS011;11802;53.160;8.214;2022-12-18T13:23:55;15.67;;;8.63;;
23266;SDS011;11802;53.160;8.214;2022-12-18T13:26:38;15.13;;;8.53;;
23266;SDS011;11802;53.160;8.214;2022-12-18T13:29:04;15.23;;;8.77;;
23266;SDS011;11802;53.160;8.214;2022-12-18T13:34:16;18.80;;;9.27;;
23266;SDS011;11802;53.160;8.214;2022-12-18T13:36:43;16.37;;;9.30;;
23266;SDS011;11802;53.160;8.214;2022-12-18T13:41:44;14.27;;;8.73;;
23266;SDS011;11802;53.160;8.214;2022-12-18T13:44:12;16.73;;;8.87;;
23266;SDS011;11802;53.160;8.214;2022-12-18T13:49:59;15.80;;;8.73;;
23266;SDS011;11802;53.160;8.214;2022-12-18T13:52:26;15.30;;;8.90;;
23266;SDS011;11802;53.160;8.214;2022-12-18T13:54:54;15.00;;;8.80;;
23266;SDS011;11802;53.160;8.214;2022-12-18T13:57:25;15.97;;;8.57;;
23266;SDS011;11802;53.160;8.214;2022-12-18T13:59:59;16.17;;;8.80;;
23266;SDS011;11802;53.160;8.214;2022-12-18T14:02:44;13.77;;;8.40;;
23266;SDS011;11802;53.160;8.214;2022-12-18T14:05:26;13.97;;;8.43;;
23266;SDS011;11802;53.160;8.214;2022-12-18T14:07:59;18.07;;;8.00;;
23266;SDS011;11802;53.160;8.214;2022-12-18T14:10:30;12.07;;;7.47;;
23266;SDS011;11802;53.160;8.214;2022-12-18T14:12:56;16.07;;;8.37;;
23266;SDS011;11802;53.160;8.214;2022-12-18T14:15:31;13.90;;;8.30;;
23266;SDS011;11802;53.160;8.214;2022-12-18T14:18:16;15.40;;;8.80;;
23266;SDS011;11802;53.160;8.214;2022-12-18T14:20:44;14.90;;;9.03;;
23266;SDS011;11802;53.160;8.214;2022-12-18T14:25:50;13.40;;;8.37;;
23266;SDS011;11802;53.160;8.214;2022-12-18T14:28:16;17.53;;;9.27;;
23266;SDS011;11802;53.160;8.214;2022-12-18T14:30:43;17.80;;;9.13;;
23266;SDS011;11802;53.160;8.214;2022-12-18T14:35:38;16.40;;;9.03;;
23266;SDS011;11802;53.160;8.214;2022-12-18T14:40:52;13.80;;;8.43;;
23266;SDS011;11802;53.160;8.214;2022-12-18T14:43:19;17.10;;;9.33;;
23266;SDS011;11802;53.160;8.214;2022-12-18T14:45:45;19.10;;;9.63;;
23266;SDS011;11802;53.160;8.214;2022-12-18T14:50:40;16.13;;;8.60;;
23266;SDS011;11802;53.160;8.214;2022-12-18T14:53:06;18.80;;;9.80;;
23266;SDS011;11802;53.160;8.214;2022-12-18T14:55:52;12.80;;;8.23;;
23266;SDS011;11802;53.160;8.214;2022-12-18T14:58:18;15.57;;;8.77;;
23266;SDS011;11802;53.160;8.214;2022-12-18T15:00:43;15.37;;;8.93;;
23266;SDS011;11802;53.160;8.214;2022-12-18T15:03:09;14.97;;;9.13;;
23266;SDS011;11802;53.160;8.214;2022-12-18T15:05:35;15.93;;;9.40;;
23266;SDS011;11802;53.160;8.214;2022-12-18T15:08:01;16.53;;;9.67;;
23266;SDS011;11802;53.160;8.214;2022-12-18T15:20:45;13.20;;;8.53;;
23266;SDS011;11802;53.160;8.214;2022-12-18T15:23:21;17.27;;;9.33;;
23266;SDS011;11802;53.160;8.214;2022-12-18T15:26:23;18.97;;;9.27;;
23266;SDS011;11802;53.160;8.214;2022-12-18T15:36:22;17.00;;;8.33;;
23266;SDS011;11802;53.160;8.214;2022-12-18T15:38:49;15.83;;;8.57;;
23266;SDS011;11802;53.160;8.214;2022-12-18T15:41:16;14.63;;;8.57;;
23266;SDS011;11802;53.160;8.214;2022-12-18T15:43:44;15.60;;;8.97;;
23266;SDS011;11802;53.160;8.214;2022-12-18T15:46:15;19.53;;;8.90;;
23266;SDS011;11802;53.160;8.214;2022-12-18T15:48:43;14.60;;;8.70;;
23266;SDS011;11802;53.160;8.214;2022-12-18T15:51:20;12.47;;;7.93;;
23266;SDS011;11802;53.160;8.214;2022-12-18T15:53:51;14.57;;;8.60;;
23266;SDS011;11802;53.160;8.214;2022-12-18T15:56:19;13.43;;;7.90;;
23266;SDS011;11802;53.160;8.214;2022-12-18T15:59:13;13.37;;;8.20;;
23266;SDS011;11802;53.160;8.214;2022-12-18T16:01:41;12.37;;;7.50;;
23266;SDS011;11802;53.160;8.214;2022-12-18T16:04:10;14.33;;;7.63;;
23266;SDS011;11802;53.160;8.214;2022-12-18T16:06:38;14.83;;;8.50;;
23266;SDS011;11802;53.160;8.214;2022-12-18T16:09:04;15.20;;;8.20;;
23266;SDS011;11802;53.160;8.214;2022-12-18T16:11:30;13.00;;;7.97;;
23266;SDS011;11802;53.160;8.214;2022-12-18T16:14:12;11.77;;;7.17;;
23266;SDS011;11802;53.160;8.214;2022-12-18T16:16:47;13.77;;;7.87;;
23266;SDS011;11802;53.160;8.214;2022-12-18T16:19:18;17.10;;;7.33;;
23266;SDS011;11802;53.160;8.214;2022-12-18T16:21:44;15.13;;;7.17;;
23266;SDS011;11802;53.160;8.214;2022-12-18T16:24:18;12.90;;;7.57;;
23266;SDS011;11802;53.160;8.214;2022-12-18T16:26:46;13.53;;;7.43;;
23266;SDS011;11802;53.160;8.214;2022-12-18T16:29:12;11.50;;;6.07;;
23266;SDS011;11802;53.160;8.214;2022-12-18T16:31:38;12.00;;;7.10;;